Time;durP1;ratioP1;P1;durP2;ratioP2;P2;SDS_P1;SDS_P2;PMS_P1;PMS_P2;Temp;Humidity;BMP_temperature;BMP_pressure;BME280_temperature;BME280_humidity;BME280_pressure;Samples;Min_cycle;Max_cycle;Signal;HPM_P1;HPM_P2
2022/12/11 00:01:17;;;;;;;35.20;20.90;;;;;;;0.06;80.10;99655.87;104624;1333;38156;-71
2022/12/11 00:03:52;;;;;;;35.50;20.30;;;;;;;0.08;79.87;99652.41;104635;1333;36598;-71
2022/12/11 00:06:26;;;;;;;35.50;20.50;;;;;;;0.10;79.99;99649.50;104418;1333;38189;-71
2022/12/11 00:09:01;;;;;;;34.40;19.50;;;;;;;0.11;79.94;99654.63;104454;1329;36177;-71
2022/12/11 00:11:35;;;;;;;42.90;23.60;;;;;;;0.10;79.74;99660.29;104425;1332;37282;-71
2022/12/11 00:14:09;;;;;;;46.20;27.40;;;;;;;0.09;79.73;99661.34;104446;1333;37251;-71
2022/12/11 00:16:43;;;;;;;43.00;24.00;;;;;;;0.07;79.90;99663.92;104276;1336;37456;-72
2022/12/11 00:19:17;;;;;;;44.60;24.10;;;;;;;0.04;79.80;99660.85;104421;1329;37283;-72
2022/12/11 00:21:51;;;;;;;41.90;23.00;;;;;;;-0.00;79.83;99662.94;104652;1333;37310;-73
2022/12/11 00:24:25;;;;;;;43.50;22.80;;;;;;;-0.04;79.96;99667.07;104417;1333;37320;-72
2022/12/11 00:26:59;;;;;;;41.10;22.80;;;;;;;-0.07;79.99;99665.89;104593;1333;37776;-72
2022/12/11 00:29:34;;;;;;;36.60;20.50;;;;;;;-0.06;80.14;99668.80;104470;1333;38104;-71
2022/12/11 00:32:08;;;;;;;41.00;22.50;;;;;;;-0.03;80.40;99669.13;104437;1333;37226;-71
2022/12/11 00:34:42;;;;;;;44.50;23.70;;;;;;;-0.01;80.19;99663.45;104519;1333;172423;-71
2022/12/11 00:37:16;;;;;;;42.50;23.20;;;;;;;0.00;80.37;99661.22;104441;1333;37468;-71
2022/12/11 00:39:50;;;;;;;47.10;23.60;;;;;;;-0.02;80.28;99660.02;104467;1332;37323;-71
2022/12/11 00:42:25;;;;;;;40.00;21.30;;;;;;;-0.05;80.21;99657.30;104439;1329;37445;-71
2022/12/11 00:44:58;;;;;;;35.40;18.60;;;;;;;-0.06;80.07;99657.83;104591;1333;37143;-71
2022/12/11 00:47:33;;;;;;;36.20;18.70;;;;;;;-0.10;79.99;99659.73;104280;1336;38745;-71
2022/12/11 00:50:09;;;;;;;38.80;19.70;;;;;;;-0.08;80.26;99655.43;104441;1329;37315;-71
2022/12/11 00:52:43;;;;;;;36.80;20.10;;;;;;;-0.14;79.95;99654.29;104443;1333;36998;-73
2022/12/11 00:55:18;;;;;;;35.30;18.70;;;;;;;-0.18;80.26;99654.14;104430;1333;38579;-71
2022/12/11 00:57:54;;;;;;;37.90;20.40;;;;;;;-0.23;80.16;99653.80;104618;1333;36622;-72
2022/12/11 01:00:28;;;;;;;34.70;19.30;;;;;;;-0.27;80.29;99656.75;104590;1330;37204;-71
2022/12/11 01:03:02;;;;;;;34.30;18.70;;;;;;;-0.26;80.32;99656.21;104573;1333;38377;-71
2022/12/11 01:05:36;;;;;;;35.90;20.10;;;;;;;-0.26;80.32;99654.86;104468;1333;37190;-71
2022/12/11 01:08:10;;;;;;;35.70;18.80;;;;;;;-0.26;80.47;99662.23;104600;1333;37275;-71
2022/12/11 01:10:44;;;;;;;32.00;17.50;;;;;;;-0.28;80.42;99664.64;104603;1333;37221;-71
2022/12/11 01:13:19;;;;;;;29.90;15.90;;;;;;;-0.31;80.36;99668.95;104416;1333;36460;-71
2022/12/11 01:15:53;;;;;;;28.90;16.30;;;;;;;-0.32;80.19;99666.55;104481;1333;174420;-72
2022/12/11 01:18:27;;;;;;;29.70;17.00;;;;;;;-0.35;80.20;99662.10;104426;1332;36598;-71
2022/12/11 01:21:07;;;;;;;31.50;17.70;;;;;;;-0.33;80.41;99658.48;104445;1331;37136;-71
2022/12/11 01:23:41;;;;;;;31.90;17.90;;;;;;;-0.32;80.63;99656.27;104436;1333;37071;-71
2022/12/11 01:26:16;;;;;;;36.10;17.80;;;;;;;-0.30;80.50;99648.55;104450;1336;37476;-71
2022/12/11 01:28:52;;;;;;;31.20;17.10;;;;;;;-0.31;80.37;99644.44;104600;1333;37431;-71
2022/12/11 01:31:26;;;;;;;34.90;17.90;;;;;;;-0.33;80.36;99644.27;104396;1334;37270;-71
2022/12/11 01:34:00;;;;;;;36.80;19.80;;;;;;;-0.36;80.20;99636.92;104598;1330;36161;-71
2022/12/11 01:36:35;;;;;;;35.20;18.40;;;;;;;-0.34;80.54;99631.61;104441;1333;37221;-71
2022/12/11 01:39:09;;;;;;;33.30;17.80;;;;;;;-0.36;80.44;99622.70;104421;1333;37261;-71
2022/12/11 01:41:43;;;;;;;35.20;18.70;;;;;;;-0.40;80.34;99613.13;104440;1333;37804;-71
2022/12/11 01:45:05;;;;;;;30.50;16.60;;;;;;;-0.43;80.39;99608.86;104612;1333;36344;-71
2022/12/11 01:47:39;;;;;;;32.90;17.50;;;;;;;-0.46;80.48;99609.73;104456;1331;37429;-70
2022/12/11 01:50:13;;;;;;;27.90;15.20;;;;;;;-0.45;80.58;99606.46;104407;1333;37304;-71
2022/12/11 01:52:47;;;;;;;26.80;15.30;;;;;;;-0.41;80.41;99600.80;104437;1333;37288;-71
2022/12/11 01:55:22;;;;;;;27.70;15.30;;;;;;;-0.42;80.30;99595.66;104626;1330;36581;-71
2022/12/11 01:57:56;;;;;;;23.70;14.20;;;;;;;-0.43;80.32;99596.70;104354;1333;174318;-71
2022/12/11 02:00:30;;;;;;;26.80;14.90;;;;;;;-0.44;80.18;99595.67;104603;1333;37368;-72
2022/12/11 02:03:04;;;;;;;26.70;15.20;;;;;;;-0.44;80.10;99599.27;104609;1334;36861;-72
2022/12/11 02:05:39;;;;;;;23.10;14.30;;;;;;;-0.44;80.11;99595.33;104628;1333;37121;-72
2022/12/11 02:08:14;;;;;;;25.20;15.30;;;;;;;-0.43;80.07;99590.02;104614;1333;36559;-71
2022/12/11 02:11:00;;;;;;;27.60;15.90;;;;;;;-0.43;80.14;99584.02;104310;1334;37333;-71
2022/12/11 02:13:42;;;;;;;28.10;15.80;;;;;;;-0.43;80.03;99574.77;104538;1334;36265;-71
2022/12/11 02:16:19;;;;;;;24.80;14.80;;;;;;;-0.42;79.82;99575.27;104446;1333;37234;-71
2022/12/11 02:18:58;;;;;;;30.90;17.80;;;;;;;-0.40;80.05;99575.77;104454;1333;37246;-71
2022/12/11 02:21:34;;;;;;;31.30;16.30;;;;;;;-0.41;79.93;99573.73;104381;1336;38478;-71
2022/12/11 02:24:35;;;;;;;34.20;20.20;;;;;;;-0.43;79.83;99573.39;104596;1333;37112;-71
2022/12/11 02:27:33;;;;;;;35.00;19.10;;;;;;;-0.44;80.09;99570.66;104433;1333;37327;-72
2022/12/11 02:30:12;;;;;;;31.50;17.10;;;;;;;-0.48;79.94;99569.31;104338;1333;37156;-72
2022/12/11 02:32:49;;;;;;;32.40;17.70;;;;;;;-0.52;80.07;99570.88;104551;1334;37239;-73
2022/12/11 02:35:27;;;;;;;33.70;18.70;;;;;;;-0.54;80.16;99573.11;104589;1330;37238;-71
2022/12/11 02:38:03;;;;;;;37.80;20.10;;;;;;;-0.54;79.98;99569.17;104609;1333;37127;-71
2022/12/11 02:40:39;;;;;;;56.80;29.40;;;;;;;-0.54;80.24;99570.20;104432;1329;37749;-71
2022/12/11 02:43:15;;;;;;;43.60;23.00;;;;;;;-0.58;80.07;99570.22;104616;1333;37386;-71
2022/12/11 02:45:49;;;;;;;37.80;20.40;;;;;;;-0.62;80.15;99563.73;104188;1336;174393;-71
2022/12/11 02:48:23;;;;;;;49.70;24.90;;;;;;;-0.63;80.60;99558.79;104432;1332;37461;-71
2022/12/11 02:51:00;;;;;;;39.70;20.80;;;;;;;-0.60;80.77;99551.90;104600;1333;37367;-71
2022/12/11 02:53:35;;;;;;;41.20;22.10;;;;;;;-0.59;80.53;99547.96;104284;1336;37398;-72
2022/12/11 02:56:11;;;;;;;38.80;20.80;;;;;;;-0.60;80.55;99547.97;104149;1336;172412;-72
2022/12/11 02:58:48;;;;;;;40.00;21.10;;;;;;;-0.66;80.61;99553.15;104422;1332;37484;-71
2022/12/11 03:01:22;;;;;;;43.90;22.20;;;;;;;-0.68;80.93;99556.40;104288;1336;37057;-71
2022/12/11 03:03:56;;;;;;;38.20;20.50;;;;;;;-0.66;80.83;99557.27;104585;1329;37277;-71
2022/12/11 03:06:35;;;;;;;39.10;20.70;;;;;;;-0.65;80.78;99550.23;104424;1333;37114;-71
2022/12/11 03:09:09;;;;;;;;;;;;;;;-0.62;80.89;99553.46;104369;1334;36585;-71
2022/12/11 03:11:43;;;;;;;49.00;24.80;;;;;;;-0.63;80.92;99556.73;104599;1333;37265;-71
2022/12/11 03:14:18;;;;;;;43.20;22.50;;;;;;;-0.61;81.09;99558.77;104441;1331;37305;-71
2022/12/11 03:16:55;;;;;;;39.80;20.50;;;;;;;-0.60;80.98;99560.65;104617;1333;36730;-71
2022/12/11 03:19:34;;;;;;;38.30;20.10;;;;;;;-0.59;81.14;99561.33;104614;1333;38669;-71
2022/12/11 03:22:12;;;;;;;35.50;19.60;;;;;;;-0.56;80.96;99560.11;104609;1334;37143;-71
2022/12/11 03:24:49;;;;;;;37.80;20.20;;;;;;;-0.52;81.21;99559.06;104600;1333;36175;-71
2022/12/11 03:27:28;;;;;;;39.50;21.70;;;;;;;-0.51;80.97;99565.05;104236;1334;172411;-71
2022/12/11 03:30:05;;;;;;;39.50;20.90;;;;;;;-0.48;81.00;99564.00;103142;1333;911899;-72
2022/12/11 03:32:42;;;;;;;40.60;19.70;;;;;;;-0.51;80.87;99565.05;104593;1332;37606;-72
2022/12/11 03:35:19;;;;;;;38.40;19.30;;;;;;;-0.52;80.89;99567.45;104624;1333;36740;-72
2022/12/11 03:37:53;;;;;;;39.50;20.70;;;;;;;-0.54;80.92;99569.18;104447;1332;37304;-72
2022/12/11 03:40:28;;;;;;;41.40;22.20;;;;;;;-0.54;80.76;99567.46;104581;1333;37244;-72
2022/12/11 03:43:02;;;;;;;42.20;21.30;;;;;;;-0.54;80.88;99569.17;104582;1333;37484;-72
2022/12/11 03:45:36;;;;;;;46.20;20.70;;;;;;;-0.49;81.13;99573.27;104606;1333;38357;-72
2022/12/11 03:48:10;;;;;;;42.50;20.90;;;;;;;-0.48;80.97;99572.40;104576;1333;37190;-72
2022/12/11 03:50:45;;;;;;;39.00;19.70;;;;;;;-0.55;80.71;99572.09;104585;1333;37143;-72
2022/12/11 03:53:19;;;;;;;40.20;20.80;;;;;;;-0.60;80.68;99574.17;104602;1333;38061;-71
2022/12/11 03:55:53;;;;;;;41.60;20.80;;;;;;;-0.65;80.63;99571.13;104382;1331;37247;-72
2022/12/11 03:58:27;;;;;;;39.80;20.30;;;;;;;-0.63;80.82;99574.37;104431;1333;37234;-72
2022/12/11 04:01:01;;;;;;;43.80;22.60;;;;;;;-0.62;81.10;99570.77;104431;1332;37469;-72
2022/12/11 04:03:35;;;;;;;41.60;20.50;;;;;;;-0.63;80.90;99568.20;104611;1333;36670;-71
2022/12/11 04:06:10;;;;;;;40.70;19.20;;;;;;;-0.64;81.01;99565.65;104456;1332;37398;-71
2022/12/11 04:08:44;;;;;;;37.90;20.40;;;;;;;-0.67;80.78;99556.23;104571;1333;37276;-72
2022/12/11 04:11:36;;;;;;;39.80;21.00;;;;;;;-0.66;81.11;99551.42;104392;1332;37275;-72
2022/12/11 04:17:04;;;;;;;44.70;22.90;;;;;;;-0.65;81.00;99544.07;104392;1334;36486;-72
2022/12/11 04:25:21;;;;;;;42.70;21.90;;;;;;;-0.70;81.05;99541.01;104317;1334;37263;-71
2022/12/11 04:27:55;;;;;;;40.40;22.80;;;;;;;-0.70;81.06;99543.23;104372;1335;37350;-71
2022/12/11 04:30:30;;;;;;;43.10;23.10;;;;;;;-0.76;80.87;99541.39;104493;1336;36961;-71
2022/12/11 04:33:04;;;;;;;44.40;22.20;;;;;;;-0.78;81.13;99538.84;104313;1335;37228;-71
2022/12/11 04:35:39;;;;;;;45.00;22.80;;;;;;;-0.80;81.13;99543.98;104342;1334;36280;-72
2022/12/11 04:38:14;;;;;;;43.90;21.90;;;;;;;-0.82;81.16;99546.21;104507;1336;36299;-72
2022/12/11 04:40:48;;;;;;;44.00;21.90;;;;;;;-0.81;81.05;99543.81;104509;1333;37150;-72
2022/12/11 04:43:22;;;;;;;43.90;22.00;;;;;;;-0.80;81.23;99540.38;104501;1330;37232;-72
2022/12/11 04:46:04;;;;;;;41.80;22.20;;;;;;;-0.80;80.97;99536.45;104310;1336;37243;-72
2022/12/11 04:48:39;;;;;;;41.60;22.90;;;;;;;-0.82;80.89;99536.96;104507;1333;37311;-72
2022/12/11 04:51:13;;;;;;;42.50;21.50;;;;;;;-0.85;80.97;99536.98;104516;1333;36990;-72
2022/12/11 04:53:47;;;;;;;40.30;21.60;;;;;;;-0.89;80.86;99536.83;104206;1336;174329;-72
2022/12/11 04:56:21;;;;;;;36.90;20.50;;;;;;;-0.93;80.94;99537.70;104298;1334;37418;-72
2022/12/11 04:58:55;;;;;;;40.00;21.50;;;;;;;-0.92;80.93;99536.50;104299;1334;36642;-72
2022/12/11 05:01:30;;;;;;;38.70;21.50;;;;;;;-0.93;80.80;99530.52;104083;1336;370538;-72
2022/12/11 05:04:04;;;;;;;34.10;19.20;;;;;;;-0.97;80.81;99523.19;104316;1334;37253;-72
2022/12/11 05:06:38;;;;;;;35.30;19.50;;;;;;;-1.00;80.70;99510.70;104311;1335;37350;-72
2022/12/11 05:09:15;;;;;;;36.80;18.90;;;;;;;-1.01;80.97;99514.13;104199;1336;174345;-72
2022/12/11 05:11:49;;;;;;;31.30;18.80;;;;;;;-1.00;80.87;99505.39;104282;1336;37012;-72
2022/12/11 05:14:26;;;;;;;35.10;19.40;;;;;;;-1.04;80.69;99503.19;104507;1330;37241;-72
2022/12/11 05:17:01;;;;;;;39.80;22.30;;;;;;;-1.06;80.97;99504.23;104331;1334;37371;-72
2022/12/11 05:19:35;;;;;;;40.80;21.00;;;;;;;-1.07;81.06;99495.15;104508;1334;37123;-71
2022/12/11 05:22:10;;;;;;;37.20;19.20;;;;;;;-1.09;81.05;99493.96;104289;1336;37410;-71
2022/12/11 05:24:45;;;;;;;39.90;22.80;;;;;;;-1.13;81.07;99488.69;104334;1335;37228;-71
2022/12/11 05:27:20;;;;;;;38.70;20.60;;;;;;;-1.14;81.03;99484.75;104406;1335;37406;-71
2022/12/11 05:29:58;;;;;;;37.60;20.90;;;;;;;-1.14;81.08;99479.78;104518;1333;38349;-71
2022/12/11 05:32:32;;;;;;;40.30;23.60;;;;;;;-1.14;81.12;99476.88;104292;1334;37217;-72
2022/12/11 05:35:07;;;;;;;40.10;22.10;;;;;;;-1.15;81.02;99474.14;104522;1333;37425;-71
2022/12/11 05:37:42;;;;;;;39.20;20.90;;;;;;;-1.19;81.10;99476.05;104313;1334;37195;-71
2022/12/11 05:40:16;;;;;;;32.40;18.80;;;;;;;-1.20;81.18;99478.09;104505;1333;37735;-71
2022/12/11 05:42:51;;;;;;;36.20;20.10;;;;;;;-1.20;81.03;99475.02;104520;1334;37301;-71
2022/12/11 05:45:28;;;;;;;36.80;20.00;;;;;;;-1.22;80.89;99470.75;104291;1336;37481;-72
2022/12/11 05:48:03;;;;;;;39.10;20.80;;;;;;;-1.22;81.00;99466.81;104295;1333;37233;-72
2022/12/11 05:50:37;;;;;;;42.30;21.80;;;;;;;-1.26;81.23;99459.66;104343;1334;37446;-72
2022/12/11 05:53:12;;;;;;;37.10;21.00;;;;;;;-1.31;81.04;99461.39;104442;1337;36903;-72
2022/12/11 05:55:46;;;;;;;34.10;19.00;;;;;;;-1.34;81.41;99460.71;104549;1334;37131;-72
2022/12/11 05:58:21;;;;;;;40.70;23.20;;;;;;;-1.34;81.29;99456.61;104315;1334;37204;-72
2022/12/11 06:00:55;;;;;;;32.70;19.30;;;;;;;-1.37;81.40;99456.96;104304;1336;38220;-72
2022/12/11 06:03:29;;;;;;;34.20;20.40;;;;;;;-1.35;81.48;99455.41;104491;1333;37431;-72
2022/12/11 06:06:06;;;;;;;33.80;18.90;;;;;;;-1.34;81.54;99456.10;104508;1333;38597;-71
2022/12/11 06:08:40;;;;;;;35.20;18.70;;;;;;;-1.37;81.54;99452.52;104311;1334;38269;-71
2022/12/11 06:11:15;;;;;;;38.10;20.30;;;;;;;-1.40;81.29;99451.51;104308;1332;37223;-71
2022/12/11 06:13:50;;;;;;;30.70;17.60;;;;;;;-1.43;81.49;99453.55;104274;1334;37065;-71
2022/12/11 06:16:24;;;;;;;32.80;19.00;;;;;;;-1.44;81.39;99455.47;104363;1332;37251;-72
2022/12/11 06:18:58;;;;;;;31.10;17.80;;;;;;;-1.45;81.33;99457.86;104255;1336;36232;-72
2022/12/11 06:21:33;;;;;;;28.20;16.90;;;;;;;-1.47;81.40;99458.03;104391;1332;37497;-72
2022/12/11 06:24:10;;;;;;;27.90;16.50;;;;;;;-1.52;81.19;99455.48;104453;1333;37216;-72
2022/12/11 06:26:45;;;;;;;23.10;14.20;;;;;;;-1.55;81.38;99459.95;104340;1329;174377;-72
2022/12/11 06:29:19;;;;;;;22.60;14.20;;;;;;;-1.54;81.37;99458.23;104442;1333;37364;-72
2022/12/11 06:31:53;;;;;;;21.50;13.50;;;;;;;-1.50;81.50;99465.05;104600;1333;38298;-72
2022/12/11 06:34:27;;;;;;;24.50;16.00;;;;;;;-1.50;81.35;99464.20;104447;1329;37646;-73
2022/12/11 06:37:01;;;;;;;25.80;14.60;;;;;;;-1.52;81.26;99458.23;104591;1333;37256;-73
2022/12/11 06:39:35;;;;;;;25.60;15.10;;;;;;;-1.59;81.12;99459.45;104466;1333;37332;-71
2022/12/11 06:42:09;;;;;;;25.10;13.90;;;;;;;-1.61;81.43;99456.72;104588;1333;38149;-71
2022/12/11 06:44:43;;;;;;;22.50;13.80;;;;;;;-1.62;81.11;99460.98;104584;1333;37120;-71
2022/12/11 06:47:17;;;;;;;24.70;15.60;;;;;;;-1.60;81.28;99462.18;104577;1333;37484;-71
2022/12/11 06:49:52;;;;;;;30.60;17.80;;;;;;;-1.58;81.42;99461.33;104255;1336;39814;-71
2022/12/11 06:52:27;;;;;;;28.00;16.80;;;;;;;-1.59;81.45;99465.42;104416;1333;37489;-71
2022/12/11 06:55:06;;;;;;;31.60;17.10;;;;;;;-1.60;81.47;99465.27;104622;1333;37295;-71
2022/12/11 06:57:41;;;;;;;27.20;16.00;;;;;;;-1.60;81.69;99466.45;104438;1332;37224;-73
2022/12/11 07:00:17;;;;;;;28.80;17.70;;;;;;;-1.62;81.47;99472.62;104445;1332;37279;-72
2022/12/11 07:02:53;;;;;;;74.20;35.70;;;;;;;-1.64;81.32;99470.06;104389;1330;37499;-72
2022/12/11 07:05:28;;;;;;;47.40;26.50;;;;;;;-1.61;81.64;99469.21;104443;1333;37163;-71
2022/12/11 07:08:02;;;;;;;57.70;30.50;;;;;;;-1.63;81.54;99464.60;104627;1331;37166;-71
2022/12/11 07:10:36;;;;;;;23.50;15.20;;;;;;;-1.67;81.21;99465.96;104602;1333;37239;-71
2022/12/11 07:13:10;;;;;;;34.50;20.60;;;;;;;-1.68;81.30;99457.94;104611;1333;37113;-71
2022/12/11 07:15:45;;;;;;;26.30;16.00;;;;;;;-1.67;81.17;99455.55;104597;1330;37097;-72
2022/12/11 07:18:19;;;;;;;32.10;18.90;;;;;;;-1.67;81.16;99457.59;104568;1330;38054;-72
2022/12/11 07:20:53;;;;;;;20.50;13.40;;;;;;;-1.69;81.06;99462.05;104445;1330;37347;-72
2022/12/11 07:23:28;;;;;;;22.40;14.80;;;;;;;-1.72;80.89;99459.84;104596;1330;37164;-71
2022/12/11 07:26:06;;;;;;;20.90;13.70;;;;;;;-1.73;81.13;99457.96;104635;1333;37207;-71
2022/12/11 07:28:40;;;;;;;19.10;12.20;;;;;;;-1.73;81.08;99454.36;104457;1330;37345;-71
2022/12/11 07:31:16;;;;;;;17.90;10.90;;;;;;;-1.72;80.95;99450.27;104613;1333;37159;-72
2022/12/11 07:33:55;;;;;;;17.00;10.90;;;;;;;-1.70;81.05;99448.71;104298;1336;37222;-72
2022/12/11 07:36:29;;;;;;;18.80;11.50;;;;;;;-1.70;80.91;99442.89;104517;1333;37492;-72
2022/12/11 07:39:04;;;;;;;17.60;11.20;;;;;;;-1.74;80.78;99436.07;104302;1336;37755;-72
2022/12/11 07:41:39;;;;;;;17.50;11.20;;;;;;;-1.79;80.73;99432.33;104457;1329;37170;-73
2022/12/11 07:44:14;;;;;;;16.70;11.00;;;;;;;-1.81;80.65;99432.16;104286;1335;37353;-72
2022/12/11 07:46:49;;;;;;;17.70;10.40;;;;;;;-1.79;80.98;99430.27;104447;1333;37202;-72
2022/12/11 07:49:23;;;;;;;16.90;10.80;;;;;;;-1.77;80.87;99428.55;104606;1333;37150;-72
2022/12/11 07:51:57;;;;;;;18.20;11.40;;;;;;;-1.80;80.74;99423.95;104436;1332;37335;-72
2022/12/11 07:54:31;;;;;;;20.40;12.10;;;;;;;-1.82;80.71;99422.42;104422;1332;36878;-72
2022/12/11 07:57:05;;;;;;;18.40;12.10;;;;;;;-1.87;80.39;99419.20;104607;1333;38337;-72
2022/12/11 07:59:40;;;;;;;17.80;10.80;;;;;;;-1.91;80.43;99417.48;104425;1332;36587;-71
2022/12/11 08:02:14;;;;;;;15.90;10.30;;;;;;;-1.92;80.37;99419.71;104598;1333;38326;-72
2022/12/11 08:04:48;;;;;;;17.50;11.60;;;;;;;-1.92;80.54;99419.71;104617;1333;36269;-72
2022/12/11 08:07:22;;;;;;;20.60;12.20;;;;;;;-1.91;80.66;99423.14;104439;1333;38962;-71
2022/12/11 08:09:56;;;;;;;18.50;11.80;;;;;;;-1.88;80.75;99422.79;104596;1333;36159;-72
2022/12/11 08:12:30;;;;;;;19.20;11.40;;;;;;;-1.90;80.39;99422.61;104622;1333;37154;-71
2022/12/11 08:15:05;;;;;;;19.60;11.90;;;;;;;-1.90;80.47;99420.05;104306;1335;37859;-71
2022/12/11 08:17:39;;;;;;;19.80;12.00;;;;;;;-1.87;80.46;99419.02;104435;1332;37151;-71
2022/12/11 08:20:14;;;;;;;17.40;11.60;;;;;;;-1.86;80.23;99417.80;104427;1337;37200;-71
2022/12/11 08:22:50;;;;;;;21.90;13.60;;;;;;;-1.86;80.45;99415.61;104380;1334;37253;-71
2022/12/11 08:25:25;;;;;;;21.00;13.10;;;;;;;-1.88;80.26;99413.73;104446;1332;37231;-71
2022/12/11 08:27:59;;;;;;;21.70;13.10;;;;;;;-1.90;80.32;99412.36;104600;1333;37132;-71
2022/12/11 08:30:33;;;;;;;23.20;13.00;;;;;;;-1.90;80.68;99412.02;104446;1329;37325;-71
2022/12/11 08:33:08;;;;;;;19.20;12.40;;;;;;;-1.86;80.53;99406.54;104609;1333;37786;-71
2022/12/11 08:35:45;;;;;;;19.00;11.80;;;;;;;-1.85;80.54;99404.14;104390;1334;36484;-73
2022/12/11 08:38:20;;;;;;;20.20;12.80;;;;;;;-1.83;80.61;99401.22;104608;1333;37129;-71
2022/12/11 08:40:54;;;;;;;22.80;12.20;;;;;;;-1.81;80.58;99400.88;104395;1336;37366;-71
2022/12/11 08:43:29;;;;;;;20.00;11.70;;;;;;;-1.81;80.34;99401.05;104614;1331;37135;-71
2022/12/11 08:46:03;;;;;;;18.40;11.50;;;;;;;-1.85;80.29;99397.13;104450;1329;36240;-71
2022/12/11 08:48:42;;;;;;;18.30;11.00;;;;;;;-1.88;80.32;99397.31;104461;1336;37165;-72
2022/12/11 08:51:19;;;;;;;19.30;10.90;;;;;;;-1.89;80.19;99397.14;104628;1333;38355;-72
2022/12/11 08:53:56;;;;;;;18.50;11.90;;;;;;;-1.86;80.32;99393.03;104614;1333;37280;-72
2022/12/11 08:56:32;;;;;;;17.50;10.80;;;;;;;-1.86;80.12;99393.38;104584;1333;37126;-72
2022/12/11 08:59:08;;;;;;;18.50;10.30;;;;;;;-1.87;80.25;99392.19;104401;1336;37147;-73
2022/12/11 09:01:43;;;;;;;19.10;11.50;;;;;;;-1.88;79.94;99392.88;104619;1333;36436;-73
2022/12/11 09:10:23;;;;;;;14.80;10.40;;;;;;;-1.67;79.12;99384.75;99727;1375;545191;-72
2022/12/11 09:12:57;;;;;;;13.00;9.10;;;;;;;-1.77;78.91;99375.56;102107;1343;36671;-73
2022/12/11 09:15:31;;;;;;;13.40;9.10;;;;;;;-1.82;79.13;99370.46;102069;1345;37173;-72
2022/12/11 09:18:05;;;;;;;15.70;9.80;;;;;;;-1.85;79.41;99365.17;102091;1343;37189;-73
2022/12/11 09:20:40;;;;;;;16.00;10.50;;;;;;;-1.89;79.29;99364.33;102088;1344;37228;-74
2022/12/11 09:23:15;;;;;;;17.60;10.90;;;;;;;-1.88;79.86;99362.45;101742;1343;556734;-73
2022/12/11 09:25:52;;;;;;;19.40;10.80;;;;;;;-1.90;79.78;99361.77;102195;1342;36508;-72
2022/12/11 09:28:26;;;;;;;18.70;11.00;;;;;;;-1.92;79.94;99355.11;102196;1339;37235;-72
2022/12/11 09:31:00;;;;;;;17.00;10.40;;;;;;;-1.94;79.67;99343.84;102214;1342;37276;-71
2022/12/11 09:33:34;;;;;;;17.70;10.80;;;;;;;-1.98;80.09;99340.61;102182;1343;37456;-75
2022/12/11 09:36:10;;;;;;;16.80;10.70;;;;;;;-1.97;80.23;99342.14;102209;1340;39340;-74
2022/12/11 09:38:44;;;;;;;18.80;11.30;;;;;;;-1.94;80.28;99339.39;102237;1338;38335;-73
2022/12/11 09:41:39;;;;;;;20.10;11.60;;;;;;;-1.93;80.42;99333.06;102169;1342;37244;-72
2022/12/11 09:44:21;;;;;;;20.00;11.60;;;;;;;-1.96;80.36;99326.41;102188;1339;36339;-72
2022/12/11 09:46:56;;;;;;;17.60;10.70;;;;;;;-1.96;80.39;99323.52;102875;1329;37400;-74
2022/12/11 09:49:43;;;;;;;16.50;9.90;;;;;;;-1.95;80.56;99318.03;102866;1332;37522;-73
2022/12/11 09:52:20;;;;;;;19.10;10.90;;;;;;;-1.92;80.57;99312.89;102799;1330;37162;-75
2022/12/11 09:54:57;;;;;;;16.90;10.70;;;;;;;-1.92;80.41;99311.36;102886;1329;37210;-74
2022/12/11 09:57:44;;;;;;;18.20;11.50;;;;;;;-1.92;80.67;99306.73;102805;1333;37173;-74
2022/12/11 10:00:29;;;;;;;20.70;12.20;;;;;;;-1.93;80.65;99303.32;102844;1330;37123;-72
2022/12/11 10:04:00;;;;;;;37.10;19.80;;;;;;;-1.92;80.75;99298.02;102841;1329;37259;-72
2022/12/11 10:06:38;;;;;;;62.40;36.80;;;;;;;-1.94;80.61;99301.63;102496;1333;37230;-72
2022/12/11 10:09:19;;;;;;;55.60;32.50;;;;;;;-1.93;80.73;99301.61;102883;1329;37363;-71
2022/12/11 10:12:08;;;;;;;43.40;28.40;;;;;;;-1.91;80.81;99295.45;102831;1330;37248;-72
2022/12/11 10:14:53;;;;;;;41.40;27.20;;;;;;;-1.92;80.79;99289.81;102846;1330;37142;-73
2022/12/11 10:17:30;;;;;;;35.60;20.40;;;;;;;-1.93;80.82;99288.62;102853;1329;37181;-74
2022/12/11 10:20:19;;;;;;;41.90;27.40;;;;;;;-1.92;80.67;99286.06;102852;1330;36629;-72
2022/12/11 10:22:53;;;;;;;37.40;23.30;;;;;;;-1.90;80.76;99287.42;102798;1329;37144;-73
2022/12/11 10:25:29;;;;;;;33.60;21.70;;;;;;;-1.88;80.62;99282.27;102830;1333;36906;-73
2022/12/11 10:28:08;;;;;;;33.40;19.70;;;;;;;-1.85;80.63;99278.16;102792;1333;37122;-72
2022/12/11 10:30:44;;;;;;;;;;;;;;;-1.85;80.85;99274.22;102840;1333;38384;-73
2022/12/11 10:33:23;;;;;;;31.40;18.40;;;;;;;-1.88;80.76;99271.52;102830;1333;36822;-72
2022/12/11 10:35:58;;;;;;;54.00;33.20;;;;;;;-1.93;80.66;99270.34;102816;1332;36417;-73
2022/12/11 10:38:33;;;;;;;47.20;29.70;;;;;;;-1.93;80.91;99266.23;102825;1329;37113;-71
2022/12/11 10:41:14;;;;;;;24.90;15.80;;;;;;;-1.93;80.44;99264.02;102850;1332;36550;-70
2022/12/11 10:43:50;;;;;;;19.70;13.10;;;;;;;-1.95;80.41;99263.69;102916;1330;37489;-73
2022/12/11 10:46:26;;;;;;;22.70;15.00;;;;;;;-1.91;80.73;99262.64;102858;1333;37259;-74
2022/12/11 10:49:01;;;;;;;22.50;14.30;;;;;;;-1.92;80.45;99251.02;102852;1331;37466;-72
2022/12/11 10:51:39;;;;;;;22.70;14.00;;;;;;;-1.95;80.40;99250.02;102811;1333;37239;-73
2022/12/11 10:54:32;;;;;;;23.00;14.80;;;;;;;-1.99;80.19;99251.06;102834;1333;37406;-73
2022/12/11 10:57:07;;;;;;;22.20;14.50;;;;;;;-1.98;80.68;99237.04;102811;1329;37351;-73
2022/12/11 10:59:44;;;;;;;21.40;13.90;;;;;;;-1.93;80.54;99227.77;102820;1333;37567;-72
2022/12/11 11:02:25;;;;;;;32.80;19.20;;;;;;;-1.89;80.81;99220.06;102705;1333;175159;-73
2022/12/11 11:05:01;;;;;;;29.10;19.30;;;;;;;-1.89;80.80;99213.23;102846;1332;37123;-75
2022/12/11 11:07:35;;;;;;;23.60;15.80;;;;;;;-1.91;80.55;99212.05;102783;1329;37181;-75
2022/12/11 11:10:16;;;;;;;26.50;17.10;;;;;;;-1.93;80.57;99207.61;102875;1331;37454;-73
2022/12/11 11:12:55;;;;;;;19.70;13.50;;;;;;;-1.92;80.83;99211.88;102833;1331;38907;-72
2022/12/11 11:15:30;;;;;;;20.60;13.10;;;;;;;-1.91;80.54;99209.31;102834;1329;37715;-74
2022/12/11 11:18:12;;;;;;;29.20;19.10;;;;;;;-1.88;81.07;99201.09;102813;1332;37235;-72
2022/12/11 11:20:48;;;;;;;30.90;20.10;;;;;;;-1.82;80.89;99193.70;102828;1329;36030;-72
2022/12/11 11:23:23;;;;;;;20.90;12.70;;;;;;;-1.79;80.94;99193.34;102864;1332;37373;-74
2022/12/11 11:25:59;;;;;;;22.40;14.00;;;;;;;-1.79;80.90;99193.70;102794;1329;37470;-76
2022/12/11 11:28:36;;;;;;;16.50;10.80;;;;;;;-1.78;80.84;99191.96;102782;1333;37354;-71
2022/12/11 11:31:13;;;;;;;20.30;13.10;;;;;;;-1.76;80.72;99189.89;102724;1329;173028;-71
2022/12/11 11:33:55;;;;;;;23.00;14.20;;;;;;;-1.77;80.75;99187.17;102865;1330;37575;-73
2022/12/11 11:36:31;;;;;;;24.20;15.40;;;;;;;-1.78;80.70;99184.78;102771;1330;37238;-72
2022/12/11 11:39:19;;;;;;;21.70;14.10;;;;;;;-1.81;80.70;99181.89;102827;1329;37455;-72
2022/12/11 11:41:54;;;;;;;21.40;13.40;;;;;;;-1.79;80.95;99180.00;102800;1318;37440;-73
2022/12/11 11:44:32;;;;;;;18.00;11.60;;;;;;;-1.73;81.06;99177.91;102827;1330;37378;-73
2022/12/11 11:47:09;;;;;;;20.80;13.60;;;;;;;-1.70;80.76;99173.09;102813;1330;37144;-73
2022/12/11 11:49:56;;;;;;;23.50;14.00;;;;;;;-1.71;80.75;99175.16;102839;1331;37141;-71
2022/12/11 11:52:32;;;;;;;24.20;15.60;;;;;;;-1.71;80.80;99176.52;102886;1329;38326;-74
2022/12/11 11:55:14;;;;;;;24.00;14.80;;;;;;;-1.74;80.69;99169.02;102748;1332;37251;-71
2022/12/11 11:57:50;;;;;;;21.00;14.00;;;;;;;-1.75;80.35;99167.66;102822;1331;38505;-72
2022/12/11 12:00:29;;;;;;;19.70;14.10;;;;;;;-1.77;80.31;99168.20;102802;1329;37142;-70
2022/12/11 12:03:09;;;;;;;18.60;13.00;;;;;;;-1.79;80.19;99164.27;102817;1330;38611;-73
2022/12/11 12:05:50;;;;;;;24.00;15.60;;;;;;;-1.79;80.05;99168.55;102822;1329;37490;-75